sensor_id;sensor_type;location;lat;lon;timestamp;pressure;altitude;pressure_sealevel;temperature;humidity
13612;BME280;6877;51.436;6.774;2023-08-30T00:01:30;100366.31;;;13.09;100.00
13612;BME280;6877;51.436;6.774;2023-08-30T00:03:57;100369.91;;;13.06;100.00
13612;BME280;6877;51.436;6.774;2023-08-30T00:06:23;100377.78;;;13.06;100.00
13612;BME280;6877;51.436;6.774;2023-08-30T00:08:50;100366.38;;;13.07;100.00
13612;BME280;6877;51.436;6.774;2023-08-30T00:11:16;100371.69;;;13.06;100.00
13612;BME280;6877;51.436;6.774;2023-08-30T00:13:43;100371.72;;;13.04;100.00
13612;BME280;6877;51.436;6.774;2023-08-30T00:16:10;100368.03;;;13.10;100.00
13612;BME280;6877;51.436;6.774;2023-08-30T00:18:36;100372.22;;;13.15;100.00
13612;BME280;6877;51.436;6.774;2023-08-30T00:21:02;100370.38;;;13.17;100.00
13612;BME280;6877;51.436;6.774;2023-08-30T00:23:29;100373.19;;;13.13;100.00
13612;BME280;6877;51.436;6.774;2023-08-30T00:25:55;100376.84;;;13.09;100.00
13612;BME280;6877;51.436;6.774;2023-08-30T00:28:22;100380.56;;;13.02;100.00
13612;BME280;6877;51.436;6.774;2023-08-30T00:30:57;100375.59;;;12.94;100.00
13612;BME280;6877;51.436;6.774;2023-08-30T00:33:24;100379.28;;;12.88;100.00
13612;BME280;6877;51.436;6.774;2023-08-30T00:36:00;100379.47;;;12.82;100.00
13612;BME280;6877;51.436;6.774;2023-08-30T00:38:27;100370.13;;;12.73;100.00
13612;BME280;6877;51.436;6.774;2023-08-30T00:40:54;100371.13;;;12.71;100.00
13612;BME280;6877;51.436;6.774;2023-08-30T00:43:20;100373.88;;;12.66;100.00
13612;BME280;6877;51.436;6.774;2023-08-30T00:45:47;100365.13;;;12.67;100.00
13612;BME280;6877;51.436;6.774;2023-08-30T00:48:15;100369.56;;;12.65;100.00
13612;BME280;6877;51.436;6.774;2023-08-30T00:50:44;100364.13;;;12.70;100.00
13612;BME280;6877;51.436;6.774;2023-08-30T00:53:12;100366.63;;;12.74;100.00
13612;BME280;6877;51.436;6.774;2023-08-30T00:55:39;100371.66;;;12.81;100.00
13612;BME280;6877;51.436;6.774;2023-08-30T00:58:07;100363.69;;;12.84;100.00
13612;BME280;6877;51.436;6.774;2023-08-30T01:00:34;100361.16;;;12.81;100.00
13612;BME280;6877;51.436;6.774;2023-08-30T01:03:01;100360.44;;;12.75;100.00
13612;BME280;6877;51.436;6.774;2023-08-30T01:05:28;100357.94;;;12.72;100.00
13612;BME280;6877;51.436;6.774;2023-08-30T01:07:54;100361.66;;;12.65;100.00
13612;BME280;6877;51.436;6.774;2023-08-30T01:10:27;100360.66;;;12.69;100.00
13612;BME280;6877;51.436;6.774;2023-08-30T01:13:08;100354.34;;;12.75;100.00
13612;BME280;6877;51.436;6.774;2023-08-30T01:15:38;100352.78;;;12.69;100.00
13612;BME280;6877;51.436;6.774;2023-08-30T01:18:07;100346.75;;;12.67;100.00
13612;BME280;6877;51.436;6.774;2023-08-30T01:20:38;100347.72;;;12.63;100.00
13612;BME280;6877;51.436;6.774;2023-08-30T01:23:06;100340.03;;;12.59;100.00
13612;BME280;6877;51.436;6.774;2023-08-30T01:28:41;100335.06;;;12.49;100.00
13612;BME280;6877;51.436;6.774;2023-08-30T01:31:08;100328.31;;;12.42;100.00
13612;BME280;6877;51.436;6.774;2023-08-30T01:33:36;100330.13;;;12.40;100.00
13612;BME280;6877;51.436;6.774;2023-08-30T01:36:04;100327.53;;;12.39;100.00
13612;BME280;6877;51.436;6.774;2023-08-30T01:38:32;100331.91;;;12.40;100.00
13612;BME280;6877;51.436;6.774;2023-08-30T01:41:00;100325.72;;;12.41;100.00
13612;BME280;6877;51.436;6.774;2023-08-30T01:43:27;100326.56;;;12.43;100.00
13612;BME280;6877;51.436;6.774;2023-08-30T01:45:58;100333.41;;;12.47;100.00
13612;BME280;6877;51.436;6.774;2023-08-30T01:48:26;100333.28;;;12.51;100.00
13612;BME280;6877;51.436;6.774;2023-08-30T01:50:54;100335.06;;;12.49;100.00
13612;BME280;6877;51.436;6.774;2023-08-30T01:53:25;100339.41;;;12.50;100.00
13612;BME280;6877;51.436;6.774;2023-08-30T01:55:52;100337.59;;;12.52;100.00
13612;BME280;6877;51.436;6.774;2023-08-30T01:58:19;100334.03;;;12.55;100.00
13612;BME280;6877;51.436;6.774;2023-08-30T02:00:46;100326.94;;;12.57;100.00
13612;BME280;6877;51.436;6.774;2023-08-30T02:03:13;100333.91;;;12.58;100.00
13612;BME280;6877;51.436;6.774;2023-08-30T02:06:00;100332.16;;;12.59;100.00
13612;BME280;6877;51.436;6.774;2023-08-30T02:08:59;100330.38;;;12.59;100.00
13612;BME280;6877;51.436;6.774;2023-08-30T02:11:29;100335.72;;;12.56;100.00
13612;BME280;6877;51.436;6.774;2023-08-30T02:13:59;100332.28;;;12.54;100.00
13612;BME280;6877;51.436;6.774;2023-08-30T02:16:28;100330.75;;;12.48;100.00
13612;BME280;6877;51.436;6.774;2023-08-30T02:18:55;100333.38;;;12.48;100.00
13612;BME280;6877;51.436;6.774;2023-08-30T02:21:22;100329.19;;;12.43;100.00
13612;BME280;6877;51.436;6.774;2023-08-30T02:23:50;100330.25;;;12.36;100.00
13612;BME280;6877;51.436;6.774;2023-08-30T02:26:20;100330.53;;;12.28;100.00
13612;BME280;6877;51.436;6.774;2023-08-30T02:28:46;100331.53;;;12.24;100.00
13612;BME280;6877;51.436;6.774;2023-08-30T02:31:13;100330.63;;;12.25;100.00
13612;BME280;6877;51.436;6.774;2023-08-30T02:33:39;100324.41;;;12.27;100.00
13612;BME280;6877;51.436;6.774;2023-08-30T02:36:06;100328.06;;;12.23;100.00
13612;BME280;6877;51.436;6.774;2023-08-30T02:38:34;100327.25;;;12.21;100.00
13612;BME280;6877;51.436;6.774;2023-08-30T02:41:00;100326.38;;;12.21;100.00
13612;BME280;6877;51.436;6.774;2023-08-30T02:43:27;100326.41;;;12.19;100.00
13612;BME280;6877;51.436;6.774;2023-08-30T02:45:54;100328.34;;;12.14;100.00
13612;BME280;6877;51.436;6.774;2023-08-30T02:48:20;100329.34;;;12.10;100.00
13612;BME280;6877;51.436;6.774;2023-08-30T02:50:47;100318.94;;;12.07;100.00
13612;BME280;6877;51.436;6.774;2023-08-30T02:53:13;100318.16;;;12.05;100.00
13612;BME280;6877;51.436;6.774;2023-08-30T02:55:39;100316.31;;;12.07;100.00
13612;BME280;6877;51.436;6.774;2023-08-30T02:58:11;100306.72;;;12.08;100.00
13612;BME280;6877;51.436;6.774;2023-08-30T03:00:37;100306.81;;;12.04;100.00
13612;BME280;6877;51.436;6.774;2023-08-30T03:03:04;100300.78;;;12.01;100.00
13612;BME280;6877;51.436;6.774;2023-08-30T03:05:31;100307.00;;;11.98;100.00
13612;BME280;6877;51.436;6.774;2023-08-30T03:07:57;100302.59;;;11.99;100.00
13612;BME280;6877;51.436;6.774;2023-08-30T03:10:24;100299.97;;;11.99;100.00
13612;BME280;6877;51.436;6.774;2023-08-30T03:12:50;100294.75;;;11.99;100.00
13612;BME280;6877;51.436;6.774;2023-08-30T03:15:17;100295.63;;;11.98;100.00
13612;BME280;6877;51.436;6.774;2023-08-30T03:17:44;100294.88;;;11.94;100.00
13612;BME280;6877;51.436;6.774;2023-08-30T03:20:11;100292.22;;;11.96;100.00
13612;BME280;6877;51.436;6.774;2023-08-30T03:22:37;100297.50;;;11.94;100.00
13612;BME280;6877;51.436;6.774;2023-08-30T03:25:04;100286.13;;;11.95;100.00
13612;BME280;6877;51.436;6.774;2023-08-30T03:27:32;100290.59;;;11.92;100.00
13612;BME280;6877;51.436;6.774;2023-08-30T03:29:59;100290.78;;;11.86;100.00
13612;BME280;6877;51.436;6.774;2023-08-30T03:32:26;100285.53;;;11.86;100.00
13612;BME280;6877;51.436;6.774;2023-08-30T03:34:52;100284.69;;;11.83;100.00
13612;BME280;6877;51.436;6.774;2023-08-30T03:37:19;100288.16;;;11.84;100.00
13612;BME280;6877;51.436;6.774;2023-08-30T03:39:45;100284.81;;;11.79;100.00
13612;BME280;6877;51.436;6.774;2023-08-30T03:42:12;100277.19;;;11.71;100.00
13612;BME280;6877;51.436;6.774;2023-08-30T03:44:38;100277.97;;;11.75;100.00
13612;BME280;6877;51.436;6.774;2023-08-30T03:47:06;100274.28;;;11.80;100.00
13612;BME280;6877;51.436;6.774;2023-08-30T03:49:32;100273.56;;;11.75;100.00
13612;BME280;6877;51.436;6.774;2023-08-30T03:52:04;100273.75;;;11.69;100.00
13612;BME280;6877;51.436;6.774;2023-08-30T03:54:35;100273.16;;;11.61;100.00
13612;BME280;6877;51.436;6.774;2023-08-30T03:57:02;100271.66;;;11.52;100.00
13612;BME280;6877;51.436;6.774;2023-08-30T03:59:29;100278.75;;;11.49;100.00
13612;BME280;6877;51.436;6.774;2023-08-30T04:02:00;100273.69;;;11.43;100.00
13612;BME280;6877;51.436;6.774;2023-08-30T04:04:31;100273.94;;;11.35;100.00
13612;BME280;6877;51.436;6.774;2023-08-30T04:07:03;100275.66;;;11.34;100.00
13612;BME280;6877;51.436;6.774;2023-08-30T04:09:34;100279.84;;;11.42;100.00
13612;BME280;6877;51.436;6.774;2023-08-30T04:12:01;100277.94;;;11.47;100.00
13612;BME280;6877;51.436;6.774;2023-08-30T04:14:27;100269.97;;;11.50;100.00
13612;BME280;6877;51.436;6.774;2023-08-30T04:16:54;100267.44;;;11.48;100.00
13612;BME280;6877;51.436;6.774;2023-08-30T04:19:20;100258.81;;;11.45;100.00
13612;BME280;6877;51.436;6.774;2023-08-30T04:21:47;100255.28;;;11.46;100.00
13612;BME280;6877;51.436;6.774;2023-08-30T04:24:14;100248.31;;;11.45;100.00
13612;BME280;6877;51.436;6.774;2023-08-30T04:26:41;100239.66;;;11.41;100.00
13612;BME280;6877;51.436;6.774;2023-08-30T04:29:12;100240.69;;;11.37;100.00
13612;BME280;6877;51.436;6.774;2023-08-30T04:31:39;100233.72;;;11.36;100.00
13612;BME280;6877;51.436;6.774;2023-08-30T04:34:05;100236.44;;;11.33;100.00
13612;BME280;6877;51.436;6.774;2023-08-30T04:36:32;100237.47;;;11.27;100.00
13612;BME280;6877;51.436;6.774;2023-08-30T04:38:58;100233.31;;;11.20;100.00
13612;BME280;6877;51.436;6.774;2023-08-30T04:41:25;100240.28;;;11.21;100.00
13612;BME280;6877;51.436;6.774;2023-08-30T04:43:51;100224.34;;;11.29;100.00
13612;BME280;6877;51.436;6.774;2023-08-30T04:46:18;100233.06;;;11.29;100.00
13612;BME280;6877;51.436;6.774;2023-08-30T04:48:45;100234.75;;;11.30;100.00
13612;BME280;6877;51.436;6.774;2023-08-30T04:51:12;100225.91;;;11.34;100.00
13612;BME280;6877;51.436;6.774;2023-08-30T04:53:39;100227.47;;;11.42;100.00
13612;BME280;6877;51.436;6.774;2023-08-30T04:56:12;100224.75;;;11.45;100.00
13612;BME280;6877;51.436;6.774;2023-08-30T04:58:39;100226.06;;;11.58;100.00
13612;BME280;6877;51.436;6.774;2023-08-30T05:01:05;100223.19;;;11.66;100.00
13612;BME280;6877;51.436;6.774;2023-08-30T05:03:38;100215.91;;;11.75;100.00
13612;BME280;6877;51.436;6.774;2023-08-30T05:06:04;100212.22;;;11.81;100.00
13612;BME280;6877;51.436;6.774;2023-08-30T05:08:31;100210.28;;;11.88;100.00
13612;BME280;6877;51.436;6.774;2023-08-30T05:10:57;100209.22;;;11.95;100.00
13612;BME280;6877;51.436;6.774;2023-08-30T05:13:27;100204.72;;;11.98;100.00
13612;BME280;6877;51.436;6.774;2023-08-30T05:15:53;100205.50;;;12.00;100.00
13612;BME280;6877;51.436;6.774;2023-08-30T05:18:20;100202.75;;;12.05;100.00
13612;BME280;6877;51.436;6.774;2023-08-30T05:20:46;100196.59;;;12.06;100.00
13612;BME280;6877;51.436;6.774;2023-08-30T05:23:13;100196.44;;;12.11;100.00
13612;BME280;6877;51.436;6.774;2023-08-30T05:25:39;100191.09;;;12.14;100.00
13612;BME280;6877;51.436;6.774;2023-08-30T05:28:06;100191.03;;;12.15;100.00
13612;BME280;6877;51.436;6.774;2023-08-30T05:30:32;100183.97;;;12.17;100.00
13612;BME280;6877;51.436;6.774;2023-08-30T05:32:59;100179.50;;;12.19;100.00
13612;BME280;6877;51.436;6.774;2023-08-30T05:35:25;100162.81;;;12.22;100.00
13612;BME280;6877;51.436;6.774;2023-08-30T05:37:52;100167.09;;;12.24;100.00
13612;BME280;6877;51.436;6.774;2023-08-30T05:40:18;100165.31;;;12.26;100.00
13612;BME280;6877;51.436;6.774;2023-08-30T05:42:45;100160.84;;;12.28;100.00
13612;BME280;6877;51.436;6.774;2023-08-30T05:45:11;100164.22;;;12.32;100.00
13612;BME280;6877;51.436;6.774;2023-08-30T05:47:38;100164.00;;;12.38;100.00
13612;BME280;6877;51.436;6.774;2023-08-30T05:50:05;100166.28;;;12.47;100.00
13612;BME280;6877;51.436;6.774;2023-08-30T05:52:32;100172.03;;;12.59;100.00
13612;BME280;6877;51.436;6.774;2023-08-30T05:55:01;100164.59;;;12.70;100.00
13612;BME280;6877;51.436;6.774;2023-08-30T05:57:34;100163.19;;;12.85;100.00
13612;BME280;6877;51.436;6.774;2023-08-30T06:00:03;100158.34;;;12.97;100.00
13612;BME280;6877;51.436;6.774;2023-08-30T06:02:31;100158.72;;;13.10;100.00
13612;BME280;6877;51.436;6.774;2023-08-30T06:04:58;100154.81;;;13.20;100.00
13612;BME280;6877;51.436;6.774;2023-08-30T06:07:24;100154.69;;;13.23;100.00
13612;BME280;6877;51.436;6.774;2023-08-30T06:09:51;100157.25;;;13.27;100.00
13612;BME280;6877;51.436;6.774;2023-08-30T06:12:17;100158.91;;;13.29;100.00
13612;BME280;6877;51.436;6.774;2023-08-30T06:14:44;100154.31;;;13.34;100.00
13612;BME280;6877;51.436;6.774;2023-08-30T06:17:19;100156.50;;;13.45;100.00
13612;BME280;6877;51.436;6.774;2023-08-30T06:19:46;100146.31;;;13.59;100.00
13612;BME280;6877;51.436;6.774;2023-08-30T06:22:12;100145.03;;;13.70;100.00
13612;BME280;6877;51.436;6.774;2023-08-30T06:24:39;100152.53;;;13.79;100.00
13612;BME280;6877;51.436;6.774;2023-08-30T06:27:06;100148.84;;;13.83;100.00
13612;BME280;6877;51.436;6.774;2023-08-30T06:29:32;100141.69;;;13.86;100.00
13612;BME280;6877;51.436;6.774;2023-08-30T06:31:59;100145.78;;;13.94;100.00
13612;BME280;6877;51.436;6.774;2023-08-30T06:34:25;100150.03;;;13.96;100.00
13612;BME280;6877;51.436;6.774;2023-08-30T06:36:52;100147.88;;;14.06;100.00
13612;BME280;6877;51.436;6.774;2023-08-30T06:39:18;100139.66;;;14.13;100.00
13612;BME280;6877;51.436;6.774;2023-08-30T06:41:45;100143.75;;;14.21;100.00
13612;BME280;6877;51.436;6.774;2023-08-30T06:44:11;100145.13;;;14.29;100.00
13612;BME280;6877;51.436;6.774;2023-08-30T06:46:38;100146.38;;;14.41;100.00
13612;BME280;6877;51.436;6.774;2023-08-30T06:49:06;100145.72;;;14.56;100.00
13612;BME280;6877;51.436;6.774;2023-08-30T06:51:35;100150.41;;;14.69;100.00
13612;BME280;6877;51.436;6.774;2023-08-30T06:54:02;100142.69;;;14.84;100.00
13612;BME280;6877;51.436;6.774;2023-08-30T06:56:28;100143.63;;;15.02;100.00
13612;BME280;6877;51.436;6.774;2023-08-30T06:58:55;100142.19;;;15.14;100.00
13612;BME280;6877;51.436;6.774;2023-08-30T07:01:21;100142.47;;;15.27;100.00
13612;BME280;6877;51.436;6.774;2023-08-30T07:03:48;100139.59;;;15.32;100.00
13612;BME280;6877;51.436;6.774;2023-08-30T07:06:14;100139.59;;;15.32;100.00
13612;BME280;6877;51.436;6.774;2023-08-30T07:08:41;100134.19;;;15.35;100.00
13612;BME280;6877;51.436;6.774;2023-08-30T07:11:07;100133.03;;;15.40;100.00
13612;BME280;6877;51.436;6.774;2023-08-30T07:13:34;100126.63;;;15.46;100.00
13612;BME280;6877;51.436;6.774;2023-08-30T07:16:00;100113.75;;;15.57;100.00
13612;BME280;6877;51.436;6.774;2023-08-30T07:18:32;100119.00;;;15.76;100.00
13612;BME280;6877;51.436;6.774;2023-08-30T07:20:58;100114.28;;;15.83;100.00
13612;BME280;6877;51.436;6.774;2023-08-30T07:23:26;100109.47;;;15.91;100.00
13612;BME280;6877;51.436;6.774;2023-08-30T07:25:53;100110.84;;;15.98;100.00
13612;BME280;6877;51.436;6.774;2023-08-30T07:28:20;100106.72;;;16.10;100.00
13612;BME280;6877;51.436;6.774;2023-08-30T07:30:46;100114.97;;;16.21;100.00
13612;BME280;6877;51.436;6.774;2023-08-30T07:33:13;100107.00;;;16.38;100.00
13612;BME280;6877;51.436;6.774;2023-08-30T07:35:39;100116.75;;;16.54;100.00
13612;BME280;6877;51.436;6.774;2023-08-30T07:38:06;100115.78;;;16.72;100.00
13612;BME280;6877;51.436;6.774;2023-08-30T07:40:33;100120.25;;;16.87;99.78
13612;BME280;6877;51.436;6.774;2023-08-30T07:43:00;100115.31;;;16.97;96.65
13612;BME280;6877;51.436;6.774;2023-08-30T07:45:26;100118.91;;;17.12;95.70
13612;BME280;6877;51.436;6.774;2023-08-30T07:47:53;100118.91;;;17.28;93.97
13612;BME280;6877;51.436;6.774;2023-08-30T07:50:19;100116.63;;;17.52;94.06
13612;BME280;6877;51.436;6.774;2023-08-30T07:52:46;100110.38;;;17.69;88.71
13612;BME280;6877;51.436;6.774;2023-08-30T07:55:13;100117.03;;;18.06;87.91
13612;BME280;6877;51.436;6.774;2023-08-30T07:57:40;100125.59;;;18.40;86.01
13612;BME280;6877;51.436;6.774;2023-08-30T08:00:07;100124.47;;;18.87;83.49
13612;BME280;6877;51.436;6.774;2023-08-30T08:02:34;100118.41;;;19.67;78.89
13612;BME280;6877;51.436;6.774;2023-08-30T08:05:00;100121.38;;;20.41;74.33
13612;BME280;6877;51.436;6.774;2023-08-30T08:07:32;100119.53;;;21.29;69.55
13612;BME280;6877;51.436;6.774;2023-08-30T08:09:58;100123.88;;;21.30;67.02
13612;BME280;6877;51.436;6.774;2023-08-30T08:12:32;100123.09;;;21.89;64.09
13612;BME280;6877;51.436;6.774;2023-08-30T08:14:59;100124.41;;;22.19;61.80
13612;BME280;6877;51.436;6.774;2023-08-30T08:17:30;100122.78;;;22.52;60.96
13612;BME280;6877;51.436;6.774;2023-08-30T08:19:57;100139.03;;;22.94;57.91
13612;BME280;6877;51.436;6.774;2023-08-30T08:22:23;100141.09;;;23.12;57.17
13612;BME280;6877;51.436;6.774;2023-08-30T08:24:50;100130.16;;;22.82;55.79
13612;BME280;6877;51.436;6.774;2023-08-30T08:27:17;100137.66;;;22.43;57.57
13612;BME280;6877;51.436;6.774;2023-08-30T08:29:44;100121.69;;;22.08;58.10
13612;BME280;6877;51.436;6.774;2023-08-30T08:32:10;100132.22;;;21.98;58.15
13612;BME280;6877;51.436;6.774;2023-08-30T08:34:37;100134.38;;;21.93;57.22
13612;BME280;6877;51.436;6.774;2023-08-30T08:37:03;100122.53;;;22.08;56.58
13612;BME280;6877;51.436;6.774;2023-08-30T08:39:30;100130.63;;;22.19;56.30
13612;BME280;6877;51.436;6.774;2023-08-30T08:41:59;100125.88;;;21.88;55.97
13612;BME280;6877;51.436;6.774;2023-08-30T08:44:32;100136.28;;;21.91;56.38
13612;BME280;6877;51.436;6.774;2023-08-30T08:46:59;100121.00;;;21.34;57.59
13612;BME280;6877;51.436;6.774;2023-08-30T08:49:26;100117.03;;;20.66;60.28
13612;BME280;6877;51.436;6.774;2023-08-30T08:51:55;100114.06;;;20.57;61.19
13612;BME280;6877;51.436;6.774;2023-08-30T08:54:22;100112.75;;;20.50;61.63
13612;BME280;6877;51.436;6.774;2023-08-30T08:56:49;100116.28;;;20.38;62.50
13612;BME280;6877;51.436;6.774;2023-08-30T08:59:16;100109.06;;;20.14;64.26
13612;BME280;6877;51.436;6.774;2023-08-30T09:01:42;100118.50;;;19.66;67.61
13612;BME280;6877;51.436;6.774;2023-08-30T09:04:10;100121.81;;;19.01;70.80
13612;BME280;6877;51.436;6.774;2023-08-30T09:06:38;100108.00;;;18.53;75.00
13612;BME280;6877;51.436;6.774;2023-08-30T09:09:06;100104.31;;;18.13;78.76
13612;BME280;6877;51.436;6.774;2023-08-30T09:11:34;100103.41;;;17.98;79.29
13612;BME280;6877;51.436;6.774;2023-08-30T09:14:01;100099.44;;;18.05;79.44
13612;BME280;6877;51.436;6.774;2023-08-30T09:16:28;100105.88;;;18.15;78.10
13612;BME280;6877;51.436;6.774;2023-08-30T09:19:01;100111.59;;;18.23;78.95
13612;BME280;6877;51.436;6.774;2023-08-30T09:21:29;100107.44;;;18.19;78.81
13612;BME280;6877;51.436;6.774;2023-08-30T09:24:04;100115.84;;;17.81;82.36
13612;BME280;6877;51.436;6.774;2023-08-30T09:26:32;100114.47;;;16.97;91.81
13612;BME280;6877;51.436;6.774;2023-08-30T09:29:04;100102.34;;;16.26;100.00
13612;BME280;6877;51.436;6.774;2023-08-30T09:31:35;100110.16;;;15.77;100.00
13612;BME280;6877;51.436;6.774;2023-08-30T09:34:03;100107.53;;;15.41;100.00
13612;BME280;6877;51.436;6.774;2023-08-30T09:39:04;100102.97;;;14.89;100.00
13612;BME280;6877;51.436;6.774;2023-08-30T09:41:31;100098.63;;;14.88;100.00
13612;BME280;6877;51.436;6.774;2023-08-30T09:44:00;100101.88;;;14.93;100.00
13612;BME280;6877;51.436;6.774;2023-08-30T09:46:32;100099.63;;;14.86;100.00
13612;BME280;6877;51.436;6.774;2023-08-30T09:49:04;100088.38;;;14.63;100.00
13612;BME280;6877;51.436;6.774;2023-08-30T09:51:32;100082.91;;;14.47;100.00
13612;BME280;6877;51.436;6.774;2023-08-30T09:54:04;100089.13;;;14.26;100.00
13612;BME280;6877;51.436;6.774;2023-08-30T09:56:32;100083.47;;;14.14;100.00
13612;BME280;6877;51.436;6.774;2023-08-30T09:59:02;100083.59;;;14.11;100.00
13612;BME280;6877;51.436;6.774;2023-08-30T10:01:29;100080.97;;;14.11;100.00
13612;BME280;6877;51.436;6.774;2023-08-30T10:03:57;100074.59;;;14.17;100.00
13612;BME280;6877;51.436;6.774;2023-08-30T10:06:24;100072.78;;;14.19;100.00
13612;BME280;6877;51.436;6.774;2023-08-30T10:08:53;100078.47;;;14.29;100.00
13612;BME280;6877;51.436;6.774;2023-08-30T10:11:21;100086.09;;;14.35;100.00
13612;BME280;6877;51.436;6.774;2023-08-30T10:13:48;100084.94;;;14.41;100.00
13612;BME280;6877;51.436;6.774;2023-08-30T10:16:19;100089.31;;;14.42;100.00
13612;BME280;6877;51.436;6.774;2023-08-30T10:18:50;100080.03;;;14.33;100.00
13612;BME280;6877;51.436;6.774;2023-08-30T10:21:19;100077.41;;;14.33;100.00
13612;BME280;6877;51.436;6.774;2023-08-30T10:23:48;100081.97;;;14.29;100.00
13612;BME280;6877;51.436;6.774;2023-08-30T10:26:18;100082.81;;;14.30;100.00
13612;BME280;6877;51.436;6.774;2023-08-30T10:28:45;100075.47;;;14.36;100.00
13612;BME280;6877;51.436;6.774;2023-08-30T10:31:13;100085.03;;;14.39;100.00
13612;BME280;6877;51.436;6.774;2023-08-30T10:33:49;100086.00;;;14.36;100.00
13612;BME280;6877;51.436;6.774;2023-08-30T10:36:23;100076.59;;;14.31;100.00
13612;BME280;6877;51.436;6.774;2023-08-30T10:38:51;100080.53;;;14.22;100.00
13612;BME280;6877;51.436;6.774;2023-08-30T10:41:23;100075.31;;;14.21;100.00
13612;BME280;6877;51.436;6.774;2023-08-30T10:43:51;100082.00;;;14.28;100.00
13612;BME280;6877;51.436;6.774;2023-08-30T10:46:34;100090.84;;;14.27;100.00
13612;BME280;6877;51.436;6.774;2023-08-30T10:49:10;100081.66;;;14.17;100.00
13612;BME280;6877;51.436;6.774;2023-08-30T10:51:38;100081.13;;;14.08;100.00
13612;BME280;6877;51.436;6.774;2023-08-30T10:54:12;100088.50;;;14.00;100.00
13612;BME280;6877;51.436;6.774;2023-08-30T10:57:12;100088.63;;;13.97;100.00
13612;BME280;6877;51.436;6.774;2023-08-30T10:59:39;100087.03;;;13.93;100.00
13612;BME280;6877;51.436;6.774;2023-08-30T11:02:07;100090.47;;;13.95;100.00
13612;BME280;6877;51.436;6.774;2023-08-30T11:04:39;100084.94;;;14.01;100.00
13612;BME280;6877;51.436;6.774;2023-08-30T11:07:06;100084.09;;;14.01;100.00
13612;BME280;6877;51.436;6.774;2023-08-30T11:09:33;100076.47;;;13.95;100.00
13612;BME280;6877;51.436;6.774;2023-08-30T11:12:04;100073.88;;;13.93;100.00
13612;BME280;6877;51.436;6.774;2023-08-30T11:14:31;100080.19;;;13.89;100.00
13612;BME280;6877;51.436;6.774;2023-08-30T11:16:57;100077.66;;;13.87;100.00
13612;BME280;6877;51.436;6.774;2023-08-30T11:19:29;100080.88;;;13.94;100.00
13612;BME280;6877;51.436;6.774;2023-08-30T11:21:56;100073.63;;;13.99;100.00
13612;BME280;6877;51.436;6.774;2023-08-30T11:24:23;100077.03;;;14.01;100.00
13612;BME280;6877;51.436;6.774;2023-08-30T11:26:53;100074.69;;;13.95;100.00
13612;BME280;6877;51.436;6.774;2023-08-30T11:29:19;100081.00;;;13.91;100.00
13612;BME280;6877;51.436;6.774;2023-08-30T11:31:46;100081.63;;;13.96;100.00
13612;BME280;6877;51.436;6.774;2023-08-30T11:34:13;100073.88;;;13.93;100.00
13612;BME280;6877;51.436;6.774;2023-08-30T11:36:39;100070.63;;;13.88;100.00
13612;BME280;6877;51.436;6.774;2023-08-30T11:39:06;100074.94;;;13.89;100.00
13612;BME280;6877;51.436;6.774;2023-08-30T11:41:33;100071.19;;;13.95;100.00
13612;BME280;6877;51.436;6.774;2023-08-30T11:44:00;100080.59;;;14.00;100.00
13612;BME280;6877;51.436;6.774;2023-08-30T11:46:26;100073.50;;;14.02;100.00
13612;BME280;6877;51.436;6.774;2023-08-30T11:48:53;100072.63;;;14.02;100.00
13612;BME280;6877;51.436;6.774;2023-08-30T11:51:20;100073.63;;;13.99;100.00
13612;BME280;6877;51.436;6.774;2023-08-30T11:53:47;100066.53;;;14.01;100.00
13612;BME280;6877;51.436;6.774;2023-08-30T11:56:14;100072.09;;;14.14;100.00
13612;BME280;6877;51.436;6.774;2023-08-30T11:58:40;100066.34;;;14.25;100.00
13612;BME280;6877;51.436;6.774;2023-08-30T12:01:07;100065.22;;;14.30;100.00
13612;BME280;6877;51.436;6.774;2023-08-30T12:03:34;100071.03;;;14.38;100.00
13612;BME280;6877;51.436;6.774;2023-08-30T12:06:00;100080.34;;;14.46;100.00
13612;BME280;6877;51.436;6.774;2023-08-30T12:08:29;100075.47;;;14.57;100.00
13612;BME280;6877;51.436;6.774;2023-08-30T12:10:57;100069.56;;;14.71;100.00
13612;BME280;6877;51.436;6.774;2023-08-30T12:13:29;100076.25;;;14.78;100.00
13612;BME280;6877;51.436;6.774;2023-08-30T12:16:01;100075.81;;;14.87;100.00
13612;BME280;6877;51.436;6.774;2023-08-30T12:18:37;100071.22;;;14.92;100.00
13612;BME280;6877;51.436;6.774;2023-08-30T12:21:04;100074.69;;;14.74;100.00
13612;BME280;6877;51.436;6.774;2023-08-30T12:23:32;100063.88;;;14.61;100.00
13612;BME280;6877;51.436;6.774;2023-08-30T12:26:07;100057.91;;;14.57;100.00
13612;BME280;6877;51.436;6.774;2023-08-30T12:28:35;100056.63;;;14.66;100.00
13612;BME280;6877;51.436;6.774;2023-08-30T12:31:03;100058.53;;;14.63;100.00
13612;BME280;6877;51.436;6.774;2023-08-30T12:33:37;100058.47;;;14.64;100.00
13612;BME280;6877;51.436;6.774;2023-08-30T12:36:06;100053.56;;;14.56;100.00
13612;BME280;6877;51.436;6.774;2023-08-30T12:38:32;100053.63;;;14.55;100.00
13612;BME280;6877;51.436;6.774;2023-08-30T12:40:59;100050.19;;;14.53;100.00
13612;BME280;6877;51.436;6.774;2023-08-30T12:43:26;100062.06;;;14.43;100.00
13612;BME280;6877;51.436;6.774;2023-08-30T12:45:52;100061.47;;;14.36;100.00
13612;BME280;6877;51.436;6.774;2023-08-30T12:48:19;100047.75;;;14.29;100.00
13612;BME280;6877;51.436;6.774;2023-08-30T12:50:47;100052.06;;;14.30;100.00
13612;BME280;6877;51.436;6.774;2023-08-30T12:53:19;100053.41;;;14.20;100.00
13612;BME280;6877;51.436;6.774;2023-08-30T12:55:45;100051.13;;;14.12;100.00
13612;BME280;6877;51.436;6.774;2023-08-30T12:58:12;100041.59;;;14.10;100.00
13612;BME280;6877;51.436;6.774;2023-08-30T13:00:40;100043.09;;;14.16;100.00